sensor_id;sensor_type;location;lat;lon;timestamp;P1;durP1;ratioP1;P2;durP2;ratioP2
27265;SDS011;14766;51.380;13.762;2023-05-08T00:02:12;4.00;;;3.53;;
27265;SDS011;14766;51.380;13.762;2023-05-08T00:04:39;4.43;;;3.95;;
27265;SDS011;14766;51.380;13.762;2023-05-08T00:07:07;5.05;;;3.78;;
27265;SDS011;14766;51.380;13.762;2023-05-08T00:09:34;4.18;;;3.60;;
27265;SDS011;14766;51.380;13.762;2023-05-08T00:12:01;4.32;;;3.60;;
27265;SDS011;14766;51.380;13.762;2023-05-08T00:14:28;4.18;;;3.50;;
27265;SDS011;14766;51.380;13.762;2023-05-08T00:16:54;3.63;;;3.30;;
27265;SDS011;14766;51.380;13.762;2023-05-08T00:19:22;4.72;;;3.70;;
27265;SDS011;14766;51.380;13.762;2023-05-08T00:21:49;5.07;;;3.90;;
27265;SDS011;14766;51.380;13.762;2023-05-08T00:24:17;4.00;;;3.40;;
27265;SDS011;14766;51.380;13.762;2023-05-08T00:26:44;3.78;;;3.40;;
27265;SDS011;14766;51.380;13.762;2023-05-08T00:29:11;4.30;;;3.65;;
27265;SDS011;14766;51.380;13.762;2023-05-08T00:31:38;4.28;;;3.70;;
27265;SDS011;14766;51.380;13.762;2023-05-08T00:34:05;4.38;;;3.67;;
27265;SDS011;14766;51.380;13.762;2023-05-08T00:36:32;4.15;;;3.50;;
27265;SDS011;14766;51.380;13.762;2023-05-08T00:38:59;4.43;;;3.50;;
27265;SDS011;14766;51.380;13.762;2023-05-08T00:41:26;6.65;;;3.92;;
27265;SDS011;14766;51.380;13.762;2023-05-08T00:43:53;4.28;;;3.60;;
27265;SDS011;14766;51.380;13.762;2023-05-08T00:46:20;4.47;;;3.72;;
27265;SDS011;14766;51.380;13.762;2023-05-08T00:48:50;5.45;;;4.20;;
27265;SDS011;14766;51.380;13.762;2023-05-08T00:51:17;4.18;;;3.70;;
27265;SDS011;14766;51.380;13.762;2023-05-08T00:53:45;4.20;;;3.53;;
27265;SDS011;14766;51.380;13.762;2023-05-08T00:56:13;5.13;;;4.10;;
27265;SDS011;14766;51.380;13.762;2023-05-08T00:58:42;6.43;;;3.95;;
27265;SDS011;14766;51.380;13.762;2023-05-08T01:01:11;5.45;;;4.20;;
27265;SDS011;14766;51.380;13.762;2023-05-08T01:03:38;5.15;;;3.75;;
27265;SDS011;14766;51.380;13.762;2023-05-08T01:06:06;4.22;;;3.83;;
27265;SDS011;14766;51.380;13.762;2023-05-08T01:08:34;5.50;;;4.28;;
27265;SDS011;14766;51.380;13.762;2023-05-08T01:11:10;5.55;;;3.75;;
27265;SDS011;14766;51.380;13.762;2023-05-08T01:14:15;5.10;;;3.88;;
27265;SDS011;14766;51.380;13.762;2023-05-08T01:35:49;4.60;;;3.67;;
27265;SDS011;14766;51.380;13.762;2023-05-08T01:41:29;4.53;;;3.97;;
27265;SDS011;14766;51.380;13.762;2023-05-08T01:46:38;5.13;;;4.07;;
27265;SDS011;14766;51.380;13.762;2023-05-08T01:49:11;5.57;;;3.90;;
27265;SDS011;14766;51.380;13.762;2023-05-08T01:51:45;4.45;;;3.95;;
27265;SDS011;14766;51.380;13.762;2023-05-08T01:54:22;4.97;;;3.90;;
27265;SDS011;14766;51.380;13.762;2023-05-08T01:56:54;4.82;;;3.67;;
27265;SDS011;14766;51.380;13.762;2023-05-08T01:59:23;5.07;;;3.95;;
27265;SDS011;14766;51.380;13.762;2023-05-08T02:01:54;5.63;;;4.13;;
27265;SDS011;14766;51.380;13.762;2023-05-08T02:04:22;4.40;;;3.95;;
27265;SDS011;14766;51.380;13.762;2023-05-08T02:06:53;5.03;;;4.32;;
27265;SDS011;14766;51.380;13.762;2023-05-08T02:09:24;5.55;;;3.85;;
27265;SDS011;14766;51.380;13.762;2023-05-08T02:11:53;4.88;;;3.90;;
27265;SDS011;14766;51.380;13.762;2023-05-08T02:14:21;5.07;;;4.18;;
27265;SDS011;14766;51.380;13.762;2023-05-08T02:16:51;4.85;;;4.20;;
27265;SDS011;14766;51.380;13.762;2023-05-08T02:19:22;5.05;;;4.35;;
27265;SDS011;14766;51.380;13.762;2023-05-08T02:21:51;5.35;;;3.90;;
27265;SDS011;14766;51.380;13.762;2023-05-08T02:24:20;5.28;;;4.10;;
27265;SDS011;14766;51.380;13.762;2023-05-08T02:26:49;5.75;;;4.07;;
27265;SDS011;14766;51.380;13.762;2023-05-08T02:29:20;6.32;;;4.35;;
27265;SDS011;14766;51.380;13.762;2023-05-08T02:31:49;5.03;;;3.83;;
27265;SDS011;14766;51.380;13.762;2023-05-08T02:34:20;4.32;;;3.90;;
27265;SDS011;14766;51.380;13.762;2023-05-08T02:36:49;4.57;;;4.05;;
27265;SDS011;14766;51.380;13.762;2023-05-08T02:39:19;4.85;;;4.07;;
27265;SDS011;14766;51.380;13.762;2023-05-08T02:41:51;5.63;;;4.40;;
27265;SDS011;14766;51.380;13.762;2023-05-08T02:44:18;5.88;;;4.28;;
27265;SDS011;14766;51.380;13.762;2023-05-08T02:46:52;4.82;;;3.80;;
27265;SDS011;14766;51.380;13.762;2023-05-08T02:52:16;5.45;;;4.05;;
27265;SDS011;14766;51.380;13.762;2023-05-08T02:54:57;5.25;;;4.00;;
27265;SDS011;14766;51.380;13.762;2023-05-08T03:02:48;6.18;;;4.32;;
27265;SDS011;14766;51.380;13.762;2023-05-08T03:05:38;5.43;;;4.47;;
27265;SDS011;14766;51.380;13.762;2023-05-08T03:08:14;4.95;;;4.43;;
27265;SDS011;14766;51.380;13.762;2023-05-08T03:10:45;4.78;;;4.22;;
27265;SDS011;14766;51.380;13.762;2023-05-08T03:13:17;5.07;;;4.28;;
27265;SDS011;14766;51.380;13.762;2023-05-08T03:15:51;4.22;;;3.83;;
27265;SDS011;14766;51.380;13.762;2023-05-08T03:18:24;5.25;;;4.18;;
27265;SDS011;14766;51.380;13.762;2023-05-08T03:20:57;5.68;;;4.20;;
27265;SDS011;14766;51.380;13.762;2023-05-08T03:23:25;6.15;;;4.45;;
27265;SDS011;14766;51.380;13.762;2023-05-08T03:25:55;4.45;;;4.00;;
27265;SDS011;14766;51.380;13.762;2023-05-08T03:28:25;5.25;;;4.10;;
27265;SDS011;14766;51.380;13.762;2023-05-08T03:30:55;5.07;;;4.10;;
27265;SDS011;14766;51.380;13.762;2023-05-08T03:33:24;5.15;;;4.65;;
27265;SDS011;14766;51.380;13.762;2023-05-08T03:35:52;4.63;;;4.10;;
27265;SDS011;14766;51.380;13.762;2023-05-08T03:38:20;5.65;;;4.43;;
27265;SDS011;14766;51.380;13.762;2023-05-08T03:40:47;4.78;;;4.00;;
27265;SDS011;14766;51.380;13.762;2023-05-08T03:43:15;5.68;;;4.43;;
27265;SDS011;14766;51.380;13.762;2023-05-08T03:45:43;4.75;;;4.20;;
27265;SDS011;14766;51.380;13.762;2023-05-08T03:48:11;5.03;;;4.47;;
27265;SDS011;14766;51.380;13.762;2023-05-08T03:50:42;4.78;;;4.28;;
27265;SDS011;14766;51.380;13.762;2023-05-08T03:53:11;5.88;;;4.68;;
27265;SDS011;14766;51.380;13.762;2023-05-08T03:55:39;5.22;;;4.22;;
27265;SDS011;14766;51.380;13.762;2023-05-08T03:58:20;5.28;;;4.47;;
27265;SDS011;14766;51.380;13.762;2023-05-08T04:01:00;5.50;;;4.35;;
27265;SDS011;14766;51.380;13.762;2023-05-08T04:06:30;4.40;;;3.80;;
27265;SDS011;14766;51.380;13.762;2023-05-08T04:09:22;5.22;;;4.45;;
27265;SDS011;14766;51.380;13.762;2023-05-08T04:14:49;5.63;;;4.25;;
27265;SDS011;14766;51.380;13.762;2023-05-08T04:17:26;5.13;;;3.95;;
27265;SDS011;14766;51.380;13.762;2023-05-08T04:20:02;4.90;;;4.10;;
27265;SDS011;14766;51.380;13.762;2023-05-08T04:22:31;5.07;;;4.35;;
27265;SDS011;14766;51.380;13.762;2023-05-08T04:25:02;7.20;;;4.65;;
27265;SDS011;14766;51.380;13.762;2023-05-08T04:27:32;5.50;;;4.65;;
27265;SDS011;14766;51.380;13.762;2023-05-08T04:30:00;4.38;;;3.97;;
27265;SDS011;14766;51.380;13.762;2023-05-08T04:32:29;4.93;;;4.20;;
27265;SDS011;14766;51.380;13.762;2023-05-08T04:34:59;6.00;;;3.95;;
27265;SDS011;14766;51.380;13.762;2023-05-08T04:37:27;4.78;;;4.28;;
27265;SDS011;14766;51.380;13.762;2023-05-08T04:39:59;4.95;;;4.28;;
27265;SDS011;14766;51.380;13.762;2023-05-08T04:42:28;4.75;;;4.28;;
27265;SDS011;14766;51.380;13.762;2023-05-08T04:44:58;6.63;;;4.57;;
27265;SDS011;14766;51.380;13.762;2023-05-08T04:47:25;4.85;;;4.25;;
27265;SDS011;14766;51.380;13.762;2023-05-08T04:49:53;5.82;;;4.45;;
27265;SDS011;14766;51.380;13.762;2023-05-08T04:52:21;6.40;;;4.80;;
27265;SDS011;14766;51.380;13.762;2023-05-08T04:54:48;5.38;;;3.92;;
27265;SDS011;14766;51.380;13.762;2023-05-08T04:57:15;5.38;;;3.70;;
27265;SDS011;14766;51.380;13.762;2023-05-08T04:59:42;6.65;;;5.20;;
27265;SDS011;14766;51.380;13.762;2023-05-08T05:02:10;5.95;;;4.30;;
27265;SDS011;14766;51.380;13.762;2023-05-08T05:04:37;5.50;;;4.47;;
27265;SDS011;14766;51.380;13.762;2023-05-08T05:07:04;5.55;;;4.45;;
27265;SDS011;14766;51.380;13.762;2023-05-08T05:09:31;5.60;;;4.55;;
27265;SDS011;14766;51.380;13.762;2023-05-08T05:12:03;5.25;;;4.60;;
27265;SDS011;14766;51.380;13.762;2023-05-08T05:14:31;5.07;;;4.13;;
27265;SDS011;14766;51.380;13.762;2023-05-08T05:16:59;5.45;;;4.50;;
27265;SDS011;14766;51.380;13.762;2023-05-08T05:19:26;4.75;;;3.72;;
27265;SDS011;14766;51.380;13.762;2023-05-08T05:21:54;5.88;;;4.63;;
27265;SDS011;14766;51.380;13.762;2023-05-08T05:24:22;5.60;;;4.60;;
27265;SDS011;14766;51.380;13.762;2023-05-08T05:26:49;6.20;;;4.85;;
27265;SDS011;14766;51.380;13.762;2023-05-08T05:29:17;5.75;;;4.95;;
27265;SDS011;14766;51.380;13.762;2023-05-08T05:31:44;4.97;;;4.15;;
27265;SDS011;14766;51.380;13.762;2023-05-08T05:34:11;5.50;;;4.78;;
27265;SDS011;14766;51.380;13.762;2023-05-08T05:36:39;5.70;;;4.70;;
27265;SDS011;14766;51.380;13.762;2023-05-08T05:39:06;4.32;;;3.92;;
27265;SDS011;14766;51.380;13.762;2023-05-08T05:41:33;5.45;;;4.18;;
27265;SDS011;14766;51.380;13.762;2023-05-08T05:44:01;7.57;;;4.63;;
27265;SDS011;14766;51.380;13.762;2023-05-08T05:46:29;6.40;;;4.75;;
27265;SDS011;14766;51.380;13.762;2023-05-08T05:49:00;7.97;;;5.15;;
27265;SDS011;14766;51.380;13.762;2023-05-08T05:51:28;5.15;;;4.60;;
27265;SDS011;14766;51.380;13.762;2023-05-08T05:53:55;6.60;;;5.30;;
27265;SDS011;14766;51.380;13.762;2023-05-08T05:56:25;5.55;;;4.13;;
27265;SDS011;14766;51.380;13.762;2023-05-08T05:58:52;6.32;;;4.90;;
27265;SDS011;14766;51.380;13.762;2023-05-08T06:01:19;5.15;;;4.45;;
27265;SDS011;14766;51.380;13.762;2023-05-08T06:03:46;6.90;;;4.65;;
27265;SDS011;14766;51.380;13.762;2023-05-08T06:06:13;5.13;;;4.60;;
27265;SDS011;14766;51.380;13.762;2023-05-08T06:08:40;5.18;;;4.68;;
27265;SDS011;14766;51.380;13.762;2023-05-08T06:11:07;5.55;;;4.90;;
27265;SDS011;14766;51.380;13.762;2023-05-08T06:13:34;6.10;;;4.90;;
27265;SDS011;14766;51.380;13.762;2023-05-08T06:16:02;6.15;;;4.78;;
27265;SDS011;14766;51.380;13.762;2023-05-08T06:18:29;7.10;;;4.88;;
27265;SDS011;14766;51.380;13.762;2023-05-08T06:20:57;6.13;;;5.38;;
27265;SDS011;14766;51.380;13.762;2023-05-08T06:23:24;5.82;;;4.72;;
27265;SDS011;14766;51.380;13.762;2023-05-08T06:25:52;5.82;;;4.68;;
27265;SDS011;14766;51.380;13.762;2023-05-08T06:28:19;6.10;;;5.05;;
27265;SDS011;14766;51.380;13.762;2023-05-08T06:30:47;6.20;;;4.65;;
27265;SDS011;14766;51.380;13.762;2023-05-08T06:33:15;7.32;;;5.07;;
27265;SDS011;14766;51.380;13.762;2023-05-08T06:35:45;5.85;;;4.70;;
27265;SDS011;14766;51.380;13.762;2023-05-08T06:38:13;5.72;;;4.55;;
27265;SDS011;14766;51.380;13.762;2023-05-08T06:40:42;5.80;;;4.47;;
27265;SDS011;14766;51.380;13.762;2023-05-08T06:43:12;5.38;;;4.40;;
27265;SDS011;14766;51.380;13.762;2023-05-08T06:45:39;7.07;;;4.55;;
27265;SDS011;14766;51.380;13.762;2023-05-08T06:48:06;7.13;;;4.13;;
27265;SDS011;14766;51.380;13.762;2023-05-08T06:50:36;5.28;;;4.72;;
27265;SDS011;14766;51.380;13.762;2023-05-08T06:53:05;5.88;;;4.82;;
27265;SDS011;14766;51.380;13.762;2023-05-08T06:55:32;5.57;;;4.63;;
27265;SDS011;14766;51.380;13.762;2023-05-08T06:58:01;6.35;;;4.50;;
27265;SDS011;14766;51.380;13.762;2023-05-08T07:00:29;5.03;;;4.53;;
27265;SDS011;14766;51.380;13.762;2023-05-08T07:02:57;5.45;;;4.03;;
27265;SDS011;14766;51.380;13.762;2023-05-08T07:05:24;5.30;;;3.90;;
27265;SDS011;14766;51.380;13.762;2023-05-08T07:07:51;5.10;;;3.78;;
27265;SDS011;14766;51.380;13.762;2023-05-08T07:10:20;5.13;;;3.58;;
27265;SDS011;14766;51.380;13.762;2023-05-08T07:12:48;4.93;;;3.95;;
27265;SDS011;14766;51.380;13.762;2023-05-08T07:15:16;6.18;;;3.67;;
27265;SDS011;14766;51.380;13.762;2023-05-08T07:17:49;4.53;;;3.88;;
27265;SDS011;14766;51.380;13.762;2023-05-08T07:20:16;4.15;;;3.63;;
27265;SDS011;14766;51.380;13.762;2023-05-08T07:22:43;4.03;;;3.20;;
27265;SDS011;14766;51.380;13.762;2023-05-08T07:25:10;3.72;;;3.30;;
27265;SDS011;14766;51.380;13.762;2023-05-08T07:27:38;4.45;;;2.80;;
27265;SDS011;14766;51.380;13.762;2023-05-08T07:30:05;3.78;;;2.88;;
27265;SDS011;14766;51.380;13.762;2023-05-08T07:32:33;3.45;;;2.88;;
27265;SDS011;14766;51.380;13.762;2023-05-08T07:35:01;3.25;;;2.78;;
27265;SDS011;14766;51.380;13.762;2023-05-08T07:37:33;4.60;;;3.50;;
27265;SDS011;14766;51.380;13.762;2023-05-08T07:40:00;3.75;;;2.75;;
27265;SDS011;14766;51.380;13.762;2023-05-08T07:42:27;3.55;;;2.65;;
27265;SDS011;14766;51.380;13.762;2023-05-08T07:44:55;2.95;;;2.60;;
27265;SDS011;14766;51.380;13.762;2023-05-08T07:47:22;4.20;;;2.45;;
27265;SDS011;14766;51.380;13.762;2023-05-08T07:49:51;4.05;;;2.88;;
27265;SDS011;14766;51.380;13.762;2023-05-08T07:52:19;3.58;;;2.40;;
27265;SDS011;14766;51.380;13.762;2023-05-08T07:54:46;3.17;;;2.80;;
27265;SDS011;14766;51.380;13.762;2023-05-08T07:57:13;3.65;;;2.60;;
27265;SDS011;14766;51.380;13.762;2023-05-08T07:59:39;2.55;;;2.35;;
27265;SDS011;14766;51.380;13.762;2023-05-08T08:02:06;4.22;;;2.80;;
27265;SDS011;14766;51.380;13.762;2023-05-08T08:04:34;3.10;;;2.60;;
27265;SDS011;14766;51.380;13.762;2023-05-08T08:07:01;2.55;;;2.20;;
27265;SDS011;14766;51.380;13.762;2023-05-08T08:09:28;2.50;;;2.30;;
27265;SDS011;14766;51.380;13.762;2023-05-08T08:11:55;3.05;;;2.50;;
27265;SDS011;14766;51.380;13.762;2023-05-08T08:14:23;2.70;;;2.30;;
27265;SDS011;14766;51.380;13.762;2023-05-08T08:16:50;3.70;;;2.55;;
27265;SDS011;14766;51.380;13.762;2023-05-08T08:19:17;2.90;;;2.20;;
27265;SDS011;14766;51.380;13.762;2023-05-08T08:21:44;3.25;;;2.45;;
27265;SDS011;14766;51.380;13.762;2023-05-08T08:24:11;4.07;;;2.75;;
27265;SDS011;14766;51.380;13.762;2023-05-08T08:26:38;2.33;;;2.10;;
27265;SDS011;14766;51.380;13.762;2023-05-08T08:29:07;2.53;;;2.20;;
27265;SDS011;14766;51.380;13.762;2023-05-08T08:31:34;2.72;;;2.22;;
27265;SDS011;14766;51.380;13.762;2023-05-08T08:34:01;2.47;;;1.95;;
27265;SDS011;14766;51.380;13.762;2023-05-08T08:36:28;2.65;;;1.92;;
27265;SDS011;14766;51.380;13.762;2023-05-08T08:38:55;2.90;;;2.15;;
27265;SDS011;14766;51.380;13.762;2023-05-08T08:41:23;3.33;;;2.10;;
27265;SDS011;14766;51.380;13.762;2023-05-08T08:43:53;2.78;;;1.73;;
27265;SDS011;14766;51.380;13.762;2023-05-08T08:46:25;2.65;;;2.05;;
27265;SDS011;14766;51.380;13.762;2023-05-08T08:48:54;2.72;;;1.85;;
27265;SDS011;14766;51.380;13.762;2023-05-08T08:51:26;2.03;;;1.80;;
27265;SDS011;14766;51.380;13.762;2023-05-08T08:56:38;2.42;;;1.75;;
27265;SDS011;14766;51.380;13.762;2023-05-08T08:59:08;2.17;;;1.92;;
27265;SDS011;14766;51.380;13.762;2023-05-08T09:01:38;2.60;;;1.70;;
27265;SDS011;14766;51.380;13.762;2023-05-08T09:04:06;4.38;;;1.67;;
27265;SDS011;14766;51.380;13.762;2023-05-08T09:06:35;2.63;;;1.88;;
27265;SDS011;14766;51.380;13.762;2023-05-08T09:09:04;2.30;;;1.70;;
27265;SDS011;14766;51.380;13.762;2023-05-08T09:11:31;2.88;;;1.60;;
27265;SDS011;14766;51.380;13.762;2023-05-08T09:13:59;2.15;;;1.45;;
27265;SDS011;14766;51.380;13.762;2023-05-08T09:16:27;1.98;;;1.63;;
27265;SDS011;14766;51.380;13.762;2023-05-08T09:18:54;1.77;;;1.33;;
27265;SDS011;14766;51.380;13.762;2023-05-08T09:21:21;5.80;;;1.80;;
27265;SDS011;14766;51.380;13.762;2023-05-08T09:26:25;2.25;;;1.60;;
27265;SDS011;14766;51.380;13.762;2023-05-08T09:29:07;5.78;;;1.70;;
27265;SDS011;14766;51.380;13.762;2023-05-08T09:31:34;2.65;;;1.60;;
27265;SDS011;14766;51.380;13.762;2023-05-08T09:34:08;2.55;;;1.80;;
27265;SDS011;14766;51.380;13.762;2023-05-08T09:36:37;2.15;;;1.90;;
27265;SDS011;14766;51.380;13.762;2023-05-08T09:39:10;2.00;;;1.38;;
27265;SDS011;14766;51.380;13.762;2023-05-08T09:41:39;1.60;;;1.50;;
27265;SDS011;14766;51.380;13.762;2023-05-08T09:44:26;3.95;;;1.80;;
27265;SDS011;14766;51.380;13.762;2023-05-08T09:47:09;1.98;;;1.60;;
27265;SDS011;14766;51.380;13.762;2023-05-08T09:49:38;2.60;;;1.80;;
27265;SDS011;14766;51.380;13.762;2023-05-08T09:52:06;2.63;;;2.00;;
27265;SDS011;14766;51.380;13.762;2023-05-08T09:54:33;1.90;;;1.50;;
27265;SDS011;14766;51.380;13.762;2023-05-08T09:57:09;1.85;;;1.33;;
27265;SDS011;14766;51.380;13.762;2023-05-08T09:59:38;1.90;;;1.50;;
27265;SDS011;14766;51.380;13.762;2023-05-08T10:02:09;1.73;;;1.40;;
27265;SDS011;14766;51.380;13.762;2023-05-08T10:04:37;3.30;;;1.80;;
27265;SDS011;14766;51.380;13.762;2023-05-08T10:07:04;2.90;;;1.70;;
27265;SDS011;14766;51.380;13.762;2023-05-08T10:09:31;6.40;;;1.77;;
27265;SDS011;14766;51.380;13.762;2023-05-08T10:12:15;1.65;;;1.40;;
27265;SDS011;14766;51.380;13.762;2023-05-08T10:14:42;3.65;;;1.90;;
27265;SDS011;14766;51.380;13.762;2023-05-08T10:17:12;1.23;;;1.00;;
27265;SDS011;14766;51.380;13.762;2023-05-08T10:19:47;4.28;;;1.58;;
27265;SDS011;14766;51.380;13.762;2023-05-08T10:22:17;1.90;;;1.38;;
27265;SDS011;14766;51.380;13.762;2023-05-08T10:24:48;2.35;;;1.95;;
27265;SDS011;14766;51.380;13.762;2023-05-08T10:27:19;4.35;;;1.52;;
27265;SDS011;14766;51.380;13.762;2023-05-08T10:30:01;1.92;;;1.50;;
27265;SDS011;14766;51.380;13.762;2023-05-08T10:32:31;2.58;;;1.58;;
27265;SDS011;14766;51.380;13.762;2023-05-08T10:35:09;1.98;;;1.30;;
27265;SDS011;14766;51.380;13.762;2023-05-08T10:37:38;1.90;;;1.38;;
27265;SDS011;14766;51.380;13.762;2023-05-08T10:40:07;2.28;;;1.50;;
27265;SDS011;14766;51.380;13.762;2023-05-08T10:42:36;2.85;;;1.48;;
27265;SDS011;14766;51.380;13.762;2023-05-08T10:45:04;3.00;;;1.55;;
27265;SDS011;14766;51.380;13.762;2023-05-08T10:50:39;1.85;;;1.55;;
27265;SDS011;14766;51.380;13.762;2023-05-08T10:53:38;2.78;;;1.52;;
27265;SDS011;14766;51.380;13.762;2023-05-08T10:56:06;7.95;;;1.77;;
27265;SDS011;14766;51.380;13.762;2023-05-08T10:58:34;2.42;;;1.75;;
27265;SDS011;14766;51.380;13.762;2023-05-08T11:03:38;2.53;;;1.63;;
27265;SDS011;14766;51.380;13.762;2023-05-08T11:06:08;2.55;;;1.30;;
27265;SDS011;14766;51.380;13.762;2023-05-08T11:08:47;4.47;;;1.63;;
27265;SDS011;14766;51.380;13.762;2023-05-08T11:13:56;2.22;;;1.50;;
27265;SDS011;14766;51.380;13.762;2023-05-08T11:19:23;1.55;;;1.30;;
27265;SDS011;14766;51.380;13.762;2023-05-08T11:24:49;1.70;;;1.30;;
27265;SDS011;14766;51.380;13.762;2023-05-08T11:27:30;3.45;;;1.70;;
27265;SDS011;14766;51.380;13.762;2023-05-08T11:46:05;2.63;;;1.63;;
27265;SDS011;14766;51.380;13.762;2023-05-08T11:48:43;2.47;;;1.40;;
27265;SDS011;14766;51.380;13.762;2023-05-08T11:51:10;2.92;;;1.80;;
27265;SDS011;14766;51.380;13.762;2023-05-08T11:53:39;2.53;;;1.50;;
27265;SDS011;14766;51.380;13.762;2023-05-08T11:56:06;2.65;;;1.40;;
27265;SDS011;14766;51.380;13.762;2023-05-08T11:58:33;2.95;;;1.65;;
27265;SDS011;14766;51.380;13.762;2023-05-08T12:01:02;3.00;;;1.40;;
27265;SDS011;14766;51.380;13.762;2023-05-08T12:03:29;1.30;;;1.20;;
27265;SDS011;14766;51.380;13.762;2023-05-08T12:05:58;2.08;;;1.60;;
27265;SDS011;14766;51.380;13.762;2023-05-08T12:08:27;2.03;;;1.42;;
27265;SDS011;14766;51.380;13.762;2023-05-08T12:10:55;3.20;;;1.83;;
27265;SDS011;14766;51.380;13.762;2023-05-08T12:13:25;1.90;;;1.50;;
27265;SDS011;14766;51.380;13.762;2023-05-08T12:15:55;3.33;;;1.58;;
27265;SDS011;14766;51.380;13.762;2023-05-08T12:18:24;1.40;;;1.23;;
27265;SDS011;14766;51.380;13.762;2023-05-08T12:20:56;2.63;;;1.40;;
27265;SDS011;14766;51.380;13.762;2023-05-08T12:23:25;2.38;;;1.63;;
27265;SDS011;14766;51.380;13.762;2023-05-08T12:25:57;2.75;;;1.52;;
27265;SDS011;14766;51.380;13.762;2023-05-08T12:28:25;2.35;;;1.60;;
27265;SDS011;14766;51.380;13.762;2023-05-08T12:30:53;2.95;;;2.63;;
27265;SDS011;14766;51.380;13.762;2023-05-08T12:33:21;2.03;;;1.50;;
27265;SDS011;14766;51.380;13.762;2023-05-08T12:35:49;3.25;;;1.95;;
27265;SDS011;14766;51.380;13.762;2023-05-08T12:38:16;3.30;;;2.00;;
27265;SDS011;14766;51.380;13.762;2023-05-08T12:40:44;2.00;;;1.65;;
27265;SDS011;14766;51.380;13.762;2023-05-08T12:43:18;3.95;;;1.90;;
27265;SDS011;14766;51.380;13.762;2023-05-08T12:45:45;4.40;;;2.10;;
27265;SDS011;14766;51.380;13.762;2023-05-08T12:48:16;2.47;;;1.60;;
27265;SDS011;14766;51.380;13.762;2023-05-08T12:50:44;2.80;;;1.52;;
27265;SDS011;14766;51.380;13.762;2023-05-08T12:53:15;2.78;;;1.70;;
27265;SDS011;14766;51.380;13.762;2023-05-08T12:55:50;1.63;;;1.50;;
27265;SDS011;14766;51.380;13.762;2023-05-08T12:58:20;2.13;;;1.50;;
27265;SDS011;14766;51.380;13.762;2023-05-08T13:00:50;2.30;;;1.55;;
27265;SDS011;14766;51.380;13.762;2023-05-08T13:03:25;2.55;;;1.50;;
27265;SDS011;14766;51.380;13.762;2023-05-08T13:08:32;2.78;;;1.50;;
27265;SDS011;14766;51.380;13.762;2023-05-08T13:11:04;2.78;;;1.70;;
27265;SDS011;14766;51.380;13.762;2023-05-08T13:13:33;2.35;;;1.50;;
27265;SDS011;14766;51.380;13.762;2023-05-08T13:16:03;1.73;;;1.55;;
27265;SDS011;14766;51.380;13.762;2023-05-08T13:18:32;2.45;;;1.25;;
27265;SDS011;14766;51.380;13.762;2023-05-08T13:21:01;2.38;;;1.58;;
27265;SDS011;14766;51.380;13.762;2023-05-08T13:23:29;1.80;;;1.50;;
27265;SDS011;14766;51.380;13.762;2023-05-08T13:25:56;2.58;;;1.65;;
27265;SDS011;14766;51.380;13.762;2023-05-08T13:28:23;2.85;;;1.65;;
27265;SDS011;14766;51.380;13.762;2023-05-08T13:30:51;1.70;;;1.52;;
27265;SDS011;14766;51.380;13.762;2023-05-08T13:33:18;1.45;;;1.20;;
27265;SDS011;14766;51.380;13.762;2023-05-08T13:35:45;2.47;;;1.50;;
27265;SDS011;14766;51.380;13.762;2023-05-08T13:38:16;2.28;;;1.60;;
27265;SDS011;14766;51.380;13.762;2023-05-08T13:40:43;3.45;;;1.48;;
27265;SDS011;14766;51.380;13.762;2023-05-08T13:43:11;2.85;;;1.42;;
27265;SDS011;14766;51.380;13.762;2023-05-08T13:45:38;3.28;;;1.58;;
27265;SDS011;14766;51.380;13.762;2023-05-08T13:48:06;1.98;;;1.50;;
27265;SDS011;14766;51.380;13.762;2023-05-08T13:50:33;1.83;;;1.33;;
27265;SDS011;14766;51.380;13.762;2023-05-08T13:53:00;1.60;;;1.50;;
27265;SDS011;14766;51.380;13.762;2023-05-08T13:55:28;3.25;;;1.50;;
27265;SDS011;14766;51.380;13.762;2023-05-08T13:57:55;2.67;;;1.50;;
27265;SDS011;14766;51.380;13.762;2023-05-08T14:00:23;8.13;;;1.52;;
27265;SDS011;14766;51.380;13.762;2023-05-08T14:02:53;1.95;;;1.67;;
27265;SDS011;14766;51.380;13.762;2023-05-08T14:05:20;4.07;;;1.50;;
27265;SDS011;14766;51.380;13.762;2023-05-08T14:07:47;2.42;;;1.48;;
27265;SDS011;14766;51.380;13.762;2023-05-08T14:10:14;1.83;;;1.40;;
27265;SDS011;14766;51.380;13.762;2023-05-08T14:12:42;2.72;;;1.60;;
27265;SDS011;14766;51.380;13.762;2023-05-08T14:15:10;1.83;;;1.40;;
27265;SDS011;14766;51.380;13.762;2023-05-08T14:17:37;1.80;;;1.35;;
27265;SDS011;14766;51.380;13.762;2023-05-08T14:20:05;4.35;;;1.58;;
27265;SDS011;14766;51.380;13.762;2023-05-08T14:22:32;1.45;;;1.25;;
27265;SDS011;14766;51.380;13.762;2023-05-08T14:24:59;1.40;;;1.30;;
27265;SDS011;14766;51.380;13.762;2023-05-08T14:27:27;2.70;;;1.27;;
27265;SDS011;14766;51.380;13.762;2023-05-08T14:29:55;1.80;;;1.30;;
27265;SDS011;14766;51.380;13.762;2023-05-08T14:32:24;1.42;;;1.30;;
27265;SDS011;14766;51.380;13.762;2023-05-08T14:34:51;1.75;;;1.45;;
27265;SDS011;14766;51.380;13.762;2023-05-08T14:37:18;2.83;;;1.30;;
27265;SDS011;14766;51.380;13.762;2023-05-08T14:39:45;2.05;;;1.30;;
27265;SDS011;14766;51.380;13.762;2023-05-08T14:42:12;2.05;;;1.50;;
27265;SDS011;14766;51.380;13.762;2023-05-08T14:44:48;3.28;;;1.52;;
27265;SDS011;14766;51.380;13.762;2023-05-08T14:47:16;3.08;;;1.55;;
27265;SDS011;14766;51.380;13.762;2023-05-08T14:49:43;2.53;;;1.60;;
27265;SDS011;14766;51.380;13.762;2023-05-08T14:52:10;3.47;;;1.60;;
27265;SDS011;14766;51.380;13.762;2023-05-08T14:54:37;1.95;;;1.30;;
27265;SDS011;14766;51.380;13.762;2023-05-08T14:57:04;4.07;;;1.20;;
27265;SDS011;14766;51.380;13.762;2023-05-08T14:59:32;4.55;;;1.73;;
27265;SDS011;14766;51.380;13.762;2023-05-08T15:02:00;1.45;;;1.15;;
27265;SDS011;14766;51.380;13.762;2023-05-08T15:04:27;4.63;;;1.45;;
27265;SDS011;14766;51.380;13.762;2023-05-08T15:06:54;1.70;;;1.42;;
27265;SDS011;14766;51.380;13.762;2023-05-08T15:09:21;1.92;;;1.35;;
27265;SDS011;14766;51.380;13.762;2023-05-08T15:11:48;2.35;;;1.58;;
27265;SDS011;14766;51.380;13.762;2023-05-08T15:14:15;2.10;;;1.20;;
27265;SDS011;14766;51.380;13.762;2023-05-08T15:16:42;2.30;;;1.20;;
27265;SDS011;14766;51.380;13.762;2023-05-08T15:19:09;1.88;;;1.40;;
27265;SDS011;14766;51.380;13.762;2023-05-08T15:21:36;2.42;;;1.40;;
27265;SDS011;14766;51.380;13.762;2023-05-08T15:24:03;2.58;;;1.45;;
27265;SDS011;14766;51.380;13.762;2023-05-08T15:26:30;1.42;;;1.33;;
27265;SDS011;14766;51.380;13.762;2023-05-08T15:28:58;1.80;;;1.10;;
27265;SDS011;14766;51.380;13.762;2023-05-08T15:31:25;1.80;;;1.38;;
27265;SDS011;14766;51.380;13.762;2023-05-08T15:33:52;2.60;;;1.52;;
27265;SDS011;14766;51.380;13.762;2023-05-08T15:36:19;3.38;;;1.60;;
27265;SDS011;14766;51.380;13.762;2023-05-08T15:38:46;3.25;;;1.38;;
27265;SDS011;14766;51.380;13.762;2023-05-08T15:41:17;3.72;;;1.50;;
27265;SDS011;14766;51.380;13.762;2023-05-08T15:43:44;1.38;;;1.10;;
27265;SDS011;14766;51.380;13.762;2023-05-08T15:46:11;2.70;;;1.20;;
27265;SDS011;14766;51.380;13.762;2023-05-08T15:48:39;2.50;;;1.27;;
27265;SDS011;14766;51.380;13.762;2023-05-08T15:51:06;2.47;;;1.33;;
27265;SDS011;14766;51.380;13.762;2023-05-08T15:53:33;2.05;;;1.65;;
27265;SDS011;14766;51.380;13.762;2023-05-08T15:56:01;2.08;;;1.27;;
27265;SDS011;14766;51.380;13.762;2023-05-08T15:58:31;2.65;;;1.30;;
27265;SDS011;14766;51.380;13.762;2023-05-08T16:00:58;3.22;;;2.08;;
27265;SDS011;14766;51.380;13.762;2023-05-08T16:03:25;5.53;;;3.50;;